Time;durP1;ratioP1;P1;durP2;ratioP2;P2;SDS_P1;SDS_P2;PMS_P1;PMS_P2;Temp;Humidity;BMP_temperature;BMP_pressure;BME280_temperature;BME280_humidity;BME280_pressure;Samples;Min_cycle;Max_cycle;Signal;HPM_P1;HPM_P2
2022/03/03 00:02:11;;;;;;;24.60;14.13;;;;;;;-0.41;64.16;96506.59;4889267;29;20045;-75
2022/03/03 00:04:38;;;;;;;28.80;14.75;;;;;;;-0.44;64.52;96507.06;4891454;29;20049;-76
2022/03/03 00:07:06;;;;;;;27.95;13.43;;;;;;;-0.46;65.01;96509.19;4889956;29;20048;-75
2022/03/03 00:09:32;;;;;;;28.27;13.88;;;;;;;-0.46;65.12;96506.50;4891169;29;20056;-76
2022/03/03 00:11:59;;;;;;;26.92;14.27;;;;;;;-0.48;65.61;96505.94;4889685;29;20052;-76
2022/03/03 00:14:26;;;;;;;27.45;14.07;;;;;;;-0.48;65.49;96505.94;4891514;29;20071;-75
2022/03/03 00:16:52;;;;;;;25.48;14.27;;;;;;;-0.48;65.53;96511.28;4894200;29;20052;-76
2022/03/03 00:19:19;;;;;;;25.17;13.75;;;;;;;-0.49;65.17;96523.03;4893760;29;20048;-76
2022/03/03 00:21:45;;;;;;;24.95;13.82;;;;;;;-0.54;64.62;96520.28;4894268;29;20078;-76
2022/03/03 00:24:13;;;;;;;26.33;14.02;;;;;;;-0.62;64.22;96510.00;4892850;29;20052;-76
2022/03/03 00:26:40;;;;;;;27.98;14.68;;;;;;;-0.68;64.16;96505.59;4894611;29;20048;-76
2022/03/03 00:29:06;;;;;;;29.67;15.20;;;;;;;-0.76;64.41;96514.03;4893249;29;20056;-76
2022/03/03 00:31:33;;;;;;;31.20;17.23;;;;;;;-0.81;64.78;96512.09;4894365;29;20059;-77
2022/03/03 00:33:59;;;;;;;29.92;15.77;;;;;;;-0.86;65.28;96510.13;4893069;29;20064;-77
2022/03/03 00:36:27;;;;;;;29.95;15.90;;;;;;;-0.88;65.74;96512.25;4893420;29;20784;-76
2022/03/03 00:38:53;;;;;;;29.40;15.40;;;;;;;-0.89;65.88;96521.34;4893622;29;20128;-76
2022/03/03 00:41:21;;;;;;;29.05;15.80;;;;;;;-0.90;66.28;96518.88;4895516;29;20052;-76
2022/03/03 00:43:48;;;;;;;33.20;16.65;;;;;;;-0.92;66.35;96515.66;4893845;29;20467;-76
2022/03/03 00:46:14;;;;;;;33.58;17.55;;;;;;;-1.03;66.38;96513.84;4892854;29;20079;-76
2022/03/03 00:48:41;;;;;;;35.70;16.38;;;;;;;-1.06;66.47;96515.13;4894017;29;20052;-76
2022/03/03 00:51:07;;;;;;;30.40;16.23;;;;;;;-1.09;66.54;96512.94;4892355;29;20063;-76
2022/03/03 00:53:34;;;;;;;27.88;15.45;;;;;;;-1.07;66.89;96521.53;4893759;29;20060;-77
2022/03/03 00:56:01;;;;;;;31.35;16.02;;;;;;;-1.06;66.95;96517.81;4893089;29;20052;-76
2022/03/03 00:58:29;;;;;;;31.85;15.93;;;;;;;-1.07;67.32;96513.50;4893287;29;20055;-76
2022/03/03 01:00:55;;;;;;;34.78;16.83;;;;;;;-1.08;67.67;96511.91;4892844;29;20053;-76
2022/03/03 01:03:22;;;;;;;31.92;16.23;;;;;;;-1.08;67.97;96501.22;4892701;29;20067;-76
2022/03/03 01:05:49;;;;;;;31.52;15.35;;;;;;;-1.05;67.83;96511.41;4893337;29;20057;-76
2022/03/03 01:08:15;;;;;;;32.63;15.95;;;;;;;-1.04;67.64;96513.03;4892729;29;20060;-77
2022/03/03 01:10:42;;;;;;;29.77;15.52;;;;;;;-1.05;67.73;96503.38;4895230;29;20163;-77
2022/03/03 01:13:08;;;;;;;32.05;14.85;;;;;;;-1.06;67.50;96505.25;4892007;29;20053;-76
2022/03/03 01:15:36;;;;;;;28.30;15.02;;;;;;;-1.07;67.54;96514.31;4893884;29;20056;-75
2022/03/03 01:18:03;;;;;;;35.83;14.82;;;;;;;-1.08;67.41;96501.22;4892191;29;20063;-76
2022/03/03 01:20:30;;;;;;;29.85;14.90;;;;;;;-1.08;67.78;96495.88;4893560;29;20791;-76
2022/03/03 01:22:57;;;;;;;32.65;15.45;;;;;;;-1.12;67.98;96498.19;4892259;29;20111;-76
2022/03/03 01:25:24;;;;;;;27.33;13.93;;;;;;;-1.17;67.86;96487.41;4892806;29;20052;-76
2022/03/03 01:27:50;;;;;;;25.73;14.02;;;;;;;-1.24;67.75;96481.41;4892616;29;20140;-76
2022/03/03 01:30:17;;;;;;;24.15;14.15;;;;;;;-1.28;67.90;96480.28;4892160;29;20444;-77
2022/03/03 01:32:45;;;;;;;25.27;13.77;;;;;;;-1.33;67.80;96472.97;4892818;29;20055;-76
2022/03/03 01:35:11;;;;;;;25.38;13.75;;;;;;;-1.35;68.07;96475.09;4891795;29;20057;-77
2022/03/03 01:37:38;;;;;;;26.73;14.20;;;;;;;-1.36;68.26;96473.47;4893254;29;20053;-76
2022/03/03 01:40:06;;;;;;;26.63;13.70;;;;;;;-1.36;68.41;96473.47;4896001;29;20056;-77
2022/03/03 01:42:33;;;;;;;26.92;14.10;;;;;;;-1.36;68.48;96467.28;4889852;29;20089;-77
2022/03/03 01:44:59;;;;;;;27.13;13.30;;;;;;;-1.39;68.35;96465.91;4892206;29;20056;-76
2022/03/03 01:47:27;;;;;;;24.55;13.35;;;;;;;-1.43;68.50;96461.28;4892326;29;20048;-76
2022/03/03 01:49:56;;;;;;;24.08;12.60;;;;;;;-1.44;68.55;96460.47;4892485;29;20567;-77
2022/03/03 01:52:24;;;;;;;26.63;13.85;;;;;;;-1.44;68.60;96460.47;4891257;29;20056;-76
2022/03/03 01:54:51;;;;;;;24.05;13.23;;;;;;;-1.43;68.70;96472.78;4892623;29;20067;-77
2022/03/03 01:57:20;;;;;;;23.92;12.77;;;;;;;-1.43;68.83;96472.78;4891612;29;20075;-76
2022/03/03 01:59:47;;;;;;;22.15;12.75;;;;;;;-1.42;68.61;96477.06;4892822;29;20091;-76
2022/03/03 02:02:14;;;;;;;25.42;12.95;;;;;;;-1.44;68.13;96481.84;4890844;29;20063;-76
2022/03/03 02:04:41;;;;;;;26.52;13.93;;;;;;;-1.47;67.83;96474.31;4892575;29;20059;-76
2022/03/03 02:07:10;;;;;;;25.00;13.38;;;;;;;-1.48;67.47;96475.34;4891134;29;20080;-76
2022/03/03 02:09:37;;;;;;;24.48;12.75;;;;;;;-1.53;67.69;96463.78;4892805;29;20053;-76
2022/03/03 02:12:05;;;;;;;27.25;13.82;;;;;;;-1.55;68.00;96468.56;4893210;29;20056;-77
2022/03/03 02:14:41;;;;;;;23.50;12.60;;;;;;;-1.59;68.00;96465.53;4891645;29;20411;-77
2022/03/03 02:17:07;;;;;;;22.73;13.55;;;;;;;-1.59;67.98;96462.88;4891574;29;20119;-76
2022/03/03 02:19:34;;;;;;;26.30;13.88;;;;;;;-1.62;67.95;96460.66;4891511;29;20508;-76
2022/03/03 02:22:03;;;;;;;26.45;13.63;;;;;;;-1.62;68.25;96461.50;4892236;29;20060;-76
2022/03/03 02:24:29;;;;;;;21.90;12.82;;;;;;;-1.64;68.14;96450.22;4891299;29;20059;-76
2022/03/03 02:27:00;;;;;;;25.30;14.02;;;;;;;-1.67;68.73;96458.72;4892685;29;20067;-76
2022/03/03 02:29:26;;;;;;;26.50;12.85;;;;;;;-1.67;69.05;96463.22;4891419;29;20048;-76
2022/03/03 02:31:52;;;;;;;21.90;12.55;;;;;;;-1.68;69.08;96470.44;4891679;29;20508;-76
2022/03/03 02:34:19;;;;;;;20.48;12.52;;;;;;;-1.68;68.86;96456.28;4891249;29;20052;-76
2022/03/03 02:36:45;;;;;;;24.98;13.93;;;;;;;-1.70;68.73;96455.72;4891344;29;20052;-76
2022/03/03 02:39:13;;;;;;;24.58;13.55;;;;;;;-1.73;69.12;96462.31;4891268;29;20057;-76
2022/03/03 02:41:40;;;;;;;29.20;13.77;;;;;;;-1.75;69.23;96456.41;4890583;29;20064;-76
2022/03/03 02:44:06;;;;;;;25.67;13.55;;;;;;;-1.75;69.55;96452.94;4891427;29;20063;-77
2022/03/03 02:46:33;;;;;;;23.90;12.57;;;;;;;-1.77;69.35;96444.38;4891125;29;20049;-77
2022/03/03 02:49:00;;;;;;;23.38;12.77;;;;;;;-1.77;69.20;96447.03;4892507;29;20052;-77
2022/03/03 02:51:27;;;;;;;23.50;12.95;;;;;;;-1.80;69.26;96439.50;4890427;29;20488;-76
2022/03/03 02:53:53;;;;;;;22.85;12.95;;;;;;;-1.82;69.79;96438.94;4891536;29;20064;-76
2022/03/03 02:56:21;;;;;;;27.35;14.20;;;;;;;-1.85;69.98;96438.34;4890854;29;20056;-77
2022/03/03 02:58:47;;;;;;;25.80;12.93;;;;;;;-1.85;69.92;96438.34;4891505;29;20056;-75
2022/03/03 03:01:13;;;;;;;23.63;12.02;;;;;;;-1.86;70.11;96434.06;4890633;29;20064;-76
2022/03/03 03:03:40;;;;;;;24.83;12.57;;;;;;;-1.89;70.07;96441.72;4890784;29;20053;-76
2022/03/03 03:06:07;;;;;;;22.55;11.52;;;;;;;-1.88;70.02;96441.50;4890907;29;20057;-76
2022/03/03 03:08:34;;;;;;;23.13;12.55;;;;;;;-1.90;70.05;96443.59;4891134;29;20061;-77
2022/03/03 03:11:00;;;;;;;29.67;13.15;;;;;;;-1.92;70.05;96443.03;4891435;29;20048;-76
2022/03/03 03:13:28;;;;;;;25.08;12.63;;;;;;;-1.92;70.09;96453.69;4889953;29;20059;-76
2022/03/03 03:15:55;;;;;;;21.83;11.80;;;;;;;-1.97;69.38;96455.44;4891667;29;20654;-76
2022/03/03 03:18:22;;;;;;;23.38;12.32;;;;;;;-2.00;68.97;96450.56;4890520;29;20060;-76
2022/03/03 03:20:50;;;;;;;25.88;12.50;;;;;;;-2.02;68.43;96450.00;4891061;29;20102;-77
2022/03/03 03:23:18;;;;;;;21.23;12.15;;;;;;;-2.09;68.70;96452.78;4890184;29;20637;-76
2022/03/03 03:25:45;;;;;;;25.58;13.10;;;;;;;-2.13;68.90;96449.81;4891130;29;20060;-76
2022/03/03 03:28:13;;;;;;;24.58;12.70;;;;;;;-2.18;69.32;96439.03;4890731;29;20591;-76
2022/03/03 03:30:41;;;;;;;22.50;12.07;;;;;;;-2.18;69.47;96440.88;4890311;29;20107;-76
2022/03/03 03:33:09;;;;;;;27.90;13.52;;;;;;;-2.19;69.33;96437.41;4890413;29;20056;-77
2022/03/03 03:35:36;;;;;;;23.95;11.93;;;;;;;-2.22;69.57;96429.84;4890489;29;20053;-76
2022/03/03 03:38:03;;;;;;;26.67;12.45;;;;;;;-2.24;69.90;96426.63;4891101;29;20052;-76
2022/03/03 03:40:30;;;;;;;23.75;12.32;;;;;;;-2.31;70.25;96414.44;4887583;29;20053;-76
2022/03/03 03:42:56;;;;;;;23.70;12.27;;;;;;;-2.36;70.43;96421.28;4890510;29;20064;-76
2022/03/03 03:45:23;;;;;;;22.48;11.75;;;;;;;-2.39;70.58;96429.78;4887119;29;20503;-76
2022/03/03 03:47:50;;;;;;;22.30;11.98;;;;;;;-2.41;70.54;96425.72;4889601;29;20731;-77
2022/03/03 03:50:17;;;;;;;23.67;11.13;;;;;;;-2.42;70.58;96422.22;4893476;29;20057;-76
2022/03/03 03:52:44;;;;;;;25.67;13.32;;;;;;;-2.44;70.74;96415.53;4893763;29;20662;-76
2022/03/03 03:55:13;;;;;;;24.83;11.73;;;;;;;-2.45;70.70;96412.06;4894806;29;20048;-79
2022/03/03 03:57:40;;;;;;;23.00;11.95;;;;;;;-2.46;70.65;96399.75;4894015;29;20048;-76
2022/03/03 04:00:10;;;;;;;21.90;11.07;;;;;;;-2.47;70.68;96398.13;4894663;29;20743;-76
2022/03/03 04:02:36;;;;;;;18.90;10.98;;;;;;;-2.51;70.76;96394.28;4893446;29;20052;-77
2022/03/03 04:05:05;;;;;;;21.67;11.68;;;;;;;-2.53;70.83;96401.72;4894238;29;20048;-76
2022/03/03 04:07:32;;;;;;;21.88;11.27;;;;;;;-2.53;70.83;96399.06;4894540;29;20331;-76
2022/03/03 04:09:58;;;;;;;20.25;11.07;;;;;;;-2.54;71.02;96397.44;4894226;29;20053;-76
2022/03/03 04:12:25;;;;;;;22.77;10.73;;;;;;;-2.51;70.90;96398.81;4893664;29;20053;-77
2022/03/03 04:14:52;;;;;;;18.58;10.73;;;;;;;-2.49;70.60;96397.56;4893999;29;20057;-77
2022/03/03 04:17:18;;;;;;;21.58;10.27;;;;;;;-2.47;70.28;96394.66;4890508;29;20164;-76
2022/03/03 04:19:45;;;;;;;22.38;10.73;;;;;;;-2.48;70.36;96391.19;4893708;29;20052;-76
2022/03/03 04:22:12;;;;;;;18.52;10.88;;;;;;;-2.49;70.45;96391.41;4893761;29;20059;-76
2022/03/03 04:24:39;;;;;;;19.60;9.63;;;;;;;-2.50;70.73;96392.47;4893730;29;20052;-77
2022/03/03 04:27:06;;;;;;;20.35;10.00;;;;;;;-2.49;70.69;96397.56;4893891;29;20068;-77
2022/03/03 04:29:33;;;;;;;21.90;11.32;;;;;;;-2.49;70.42;96400.22;4894093;29;20044;-77
2022/03/03 04:31:59;;;;;;;24.67;11.02;;;;;;;-2.51;70.14;96398.81;4893557;29;20058;-77
2022/03/03 04:34:26;;;;;;;23.67;11.73;;;;;;;-2.83;67.91;96411.72;4893704;29;20048;-77
2022/03/03 04:36:53;;;;;;;27.80;12.00;;;;;;;-2.92;68.22;96406.75;4893657;29;20056;-76
2022/03/03 04:39:21;;;;;;;18.92;10.68;;;;;;;-2.93;68.15;96405.09;4893621;29;20056;-77
2022/03/03 04:41:48;;;;;;;20.98;10.82;;;;;;;-2.94;68.34;96411.47;4892724;29;20053;-77
2022/03/03 04:44:14;;;;;;;22.08;10.65;;;;;;;-2.95;68.65;96407.19;4893813;29;20423;-77
2022/03/03 04:46:41;;;;;;;23.30;10.75;;;;;;;-2.94;69.22;96403.47;4890024;29;20049;-77
2022/03/03 04:49:08;;;;;;;21.85;11.20;;;;;;;-2.95;69.63;96390.41;4893715;29;20045;-77
2022/03/03 04:51:36;;;;;;;21.00;10.73;;;;;;;-2.95;70.13;96393.88;4893034;29;20420;-77
2022/03/03 04:54:04;;;;;;;23.27;11.23;;;;;;;-2.95;70.57;96380.53;4892894;29;20072;-77
2022/03/03 04:56:33;;;;;;;23.60;11.55;;;;;;;-2.94;71.01;96376.03;4893205;29;20064;-77
2022/03/03 04:58:59;;;;;;;18.67;10.45;;;;;;;-2.93;71.31;96380.31;4893338;29;20052;-77
2022/03/03 05:01:26;;;;;;;27.23;10.90;;;;;;;-2.95;71.48;96377.88;4892449;29;20052;-77
2022/03/03 05:03:52;;;;;;;21.65;11.55;;;;;;;-2.95;71.54;96369.09;4894054;29;20467;-77
2022/03/03 05:06:19;;;;;;;22.85;11.02;;;;;;;-2.90;71.66;96377.19;4893887;29;20087;-77
2022/03/03 05:08:46;;;;;;;21.35;10.95;;;;;;;-2.88;71.68;96372.44;4893468;29;20079;-77
2022/03/03 05:11:12;;;;;;;23.95;11.88;;;;;;;-2.87;71.72;96363.41;4893387;29;20063;-77
2022/03/03 05:13:40;;;;;;;21.90;11.23;;;;;;;-2.84;71.62;96362.13;4893054;29;20049;-77
2022/03/03 05:16:07;;;;;;;20.95;11.70;;;;;;;-2.82;71.41;96360.84;4889666;29;20048;-77
2022/03/03 05:18:33;;;;;;;21.17;11.05;;;;;;;-2.79;71.27;96356.91;4893519;29;20048;-77
2022/03/03 05:21:01;;;;;;;22.52;10.25;;;;;;;-2.80;71.22;96348.09;4892996;29;20790;-77
2022/03/03 05:23:28;;;;;;;18.83;10.27;;;;;;;-2.81;71.25;96351.00;4892622;29;20727;-77
2022/03/03 05:25:54;;;;;;;19.77;10.55;;;;;;;-2.82;71.17;96352.84;4892866;29;20516;-76
2022/03/03 05:28:22;;;;;;;21.98;10.23;;;;;;;-2.85;71.20;96347.19;4892965;29;20049;-76
2022/03/03 05:30:50;;;;;;;20.73;10.48;;;;;;;-2.82;71.27;96349.38;4892592;29;20087;-76
2022/03/03 05:33:16;;;;;;;19.50;10.88;;;;;;;-2.79;71.15;96346.25;4892701;29;20052;-77
2022/03/03 05:35:48;;;;;;;17.63;9.82;;;;;;;-2.78;70.98;96345.19;4892824;29;20054;-76
2022/03/03 05:38:14;;;;;;;20.15;9.98;;;;;;;-2.78;70.89;96337.19;4892756;29;20063;-77
2022/03/03 05:40:41;;;;;;;21.98;10.60;;;;;;;-2.77;70.92;96336.97;4898491;29;20051;-77
2022/03/03 05:43:10;;;;;;;21.13;10.73;;;;;;;-2.78;70.91;96337.19;4910715;29;20048;-77
2022/03/03 05:45:37;;;;;;;18.77;10.32;;;;;;;-2.80;70.84;96345.44;4907979;29;20551;-77
2022/03/03 05:48:05;;;;;;;20.00;10.20;;;;;;;-2.79;70.84;96338.25;4891892;29;20057;-76
2022/03/03 05:50:32;;;;;;;22.35;9.93;;;;;;;-2.82;70.88;96349.38;4893315;29;20063;-76
2022/03/03 05:52:59;;;;;;;22.20;9.88;;;;;;;-2.84;70.83;96343.47;4880986;29;20060;-76
2022/03/03 05:55:27;;;;;;;18.95;9.10;;;;;;;-2.85;70.76;96339.19;4892404;29;20540;-75
2022/03/03 05:57:55;;;;;;;19.08;10.35;;;;;;;-2.85;70.68;96347.19;4892245;29;20076;-76
2022/03/03 06:00:22;;;;;;;21.90;10.35;;;;;;;-2.86;70.78;96340.25;4892661;29;20056;-77
2022/03/03 06:02:50;;;;;;;19.42;10.13;;;;;;;-2.86;70.78;96345.56;4891897;29;20100;-78
2022/03/03 06:05:23;;;;;;;17.88;9.80;;;;;;;-2.82;70.76;96352.03;4891941;29;20056;-79
2022/03/03 06:07:51;;;;;;;17.70;10.13;;;;;;;-2.81;70.99;96343.03;4892928;29;20059;-77
2022/03/03 06:10:21;;;;;;;21.70;10.40;;;;;;;-2.81;70.90;96345.69;4891493;29;20920;-78
2022/03/03 06:12:50;;;;;;;18.88;9.65;;;;;;;-2.78;70.81;96347.88;4891487;29;20064;-78
2022/03/03 06:15:16;;;;;;;23.20;10.48;;;;;;;-2.77;70.72;96346.81;4904556;29;20063;-78
2022/03/03 06:17:44;;;;;;;21.60;10.50;;;;;;;-2.75;70.83;96344.75;4892049;29;20575;-77
2022/03/03 06:20:13;;;;;;;17.17;10.02;;;;;;;-2.75;70.77;96347.41;4891309;29;20653;-78
2022/03/03 06:22:40;;;;;;;18.27;10.15;;;;;;;-2.70;70.87;96339.53;4891689;29;20056;-77
2022/03/03 06:25:08;;;;;;;17.88;9.38;;;;;;;-2.66;70.49;96346.81;4906072;29;20064;-76
2022/03/03 06:27:34;;;;;;;23.42;10.55;;;;;;;-2.63;70.50;96345.53;4911189;29;20067;-76
2022/03/03 06:30:01;;;;;;;18.75;9.98;;;;;;;-2.58;70.58;96340.31;4910893;29;20542;-78
2022/03/03 06:32:27;;;;;;;19.20;9.85;;;;;;;-2.54;70.48;96328.13;4909552;29;20650;-77
2022/03/03 06:34:54;;;;;;;20.77;9.75;;;;;;;-2.49;70.50;96328.22;4910922;29;20419;-76
2022/03/03 06:37:20;;;;;;;19.77;9.98;;;;;;;-2.43;70.49;96329.94;4909860;29;20059;-75
2022/03/03 06:39:48;;;;;;;19.58;9.88;;;;;;;-2.38;70.53;96327.38;4911563;29;20549;-76
2022/03/03 06:42:15;;;;;;;19.38;10.15;;;;;;;-2.31;70.65;96321.91;4908946;29;20443;-76
2022/03/03 06:44:41;;;;;;;25.85;10.25;;;;;;;-2.25;70.82;96318.28;4910788;29;20048;-76
2022/03/03 06:47:08;;;;;;;19.10;10.18;;;;;;;-2.22;70.70;96319.69;4893969;29;20045;-77
2022/03/03 06:49:34;;;;;;;18.23;10.10;;;;;;;-2.15;70.58;96318.47;4891667;29;20048;-78
2022/03/03 06:52:06;;;;;;;19.05;10.38;;;;;;;-2.08;70.38;96309.56;4891218;29;20064;-77
2022/03/03 06:54:33;;;;;;;21.30;10.30;;;;;;;-2.01;70.21;96308.34;4891070;29;20052;-77
2022/03/03 06:57:01;;;;;;;24.75;11.38;;;;;;;-1.94;70.04;96303.66;4891631;29;20060;-77
2022/03/03 06:59:31;;;;;;;21.35;10.32;;;;;;;-1.88;69.98;96305.38;4890820;29;20194;-78
2022/03/03 07:01:59;;;;;;;20.90;11.75;;;;;;;-1.79;69.86;96300.44;4891362;29;20057;-76
2022/03/03 07:04:26;;;;;;;18.98;10.10;;;;;;;-1.68;69.98;96304.09;4890333;29;20416;-77
2022/03/03 07:06:53;;;;;;;24.45;10.38;;;;;;;-1.57;69.88;96305.88;4890724;29;20060;-77
2022/03/03 07:09:20;;;;;;;20.50;10.60;;;;;;;-1.48;70.13;96299.09;4891471;29;20057;-77
2022/03/03 07:11:48;;;;;;;22.95;10.27;;;;;;;-1.39;69.36;96292.31;4891320;29;20222;-75
2022/03/03 07:14:16;;;;;;;24.52;10.90;;;;;;;-1.25;68.95;96287.44;4890704;29;20049;-76
2022/03/03 07:16:44;;;;;;;19.77;10.23;;;;;;;-1.14;68.56;96293.75;4887759;29;20060;-77
2022/03/03 07:19:29;;;;;;;19.00;10.60;;;;;;;-1.06;68.17;96290.63;4891296;29;20064;-77
2022/03/03 07:22:07;;;;;;;20.48;10.25;;;;;;;-0.95;67.67;96294.25;4890174;29;20062;-77
2022/03/03 07:24:40;;;;;;;19.55;10.50;;;;;;;-0.85;67.42;96297.88;4891745;29;20048;-77
2022/03/03 07:27:07;;;;;;;;;;;;;;;-0.69;67.13;96295.41;4891471;29;20608;-75
2022/03/03 07:29:36;;;;;;;19.75;10.20;;;;;;;-0.57;67.36;96314.84;4900279;29;19982;-77
2022/03/03 07:32:07;;;;;;;17.17;9.98;;;;;;;-0.44;67.57;96325.16;4910011;29;20056;-77
2022/03/03 07:34:37;;;;;;;23.40;10.65;;;;;;;-0.24;67.15;96334.50;4909697;29;20486;-77
2022/03/03 07:37:07;;;;;;;29.13;11.13;;;;;;;-0.09;66.64;96332.00;4909711;29;20436;-77
2022/03/03 07:39:41;;;;;;;24.90;11.13;;;;;;;0.16;65.69;96334.94;4909624;29;20048;-76
2022/03/03 07:42:12;;;;;;;17.27;10.40;;;;;;;0.53;64.03;96350.31;4909300;29;20060;-76
2022/03/03 07:44:40;;;;;;;23.75;11.65;;;;;;;0.93;63.04;96354.38;4909558;29;20051;-77
2022/03/03 07:47:07;;;;;;;21.25;11.20;;;;;;;1.19;61.53;96341.97;4890400;29;20048;-81
2022/03/03 07:49:34;;;;;;;19.30;10.85;;;;;;;1.51;60.49;96344.56;4891400;29;20140;-79
2022/03/03 07:52:08;;;;;;;22.15;11.48;;;;;;;1.77;59.96;96340.91;4896750;29;20044;-82
2022/03/03 07:54:45;;;;;;;21.48;10.75;;;;;;;1.82;59.43;96338.25;4905075;29;20092;-81
2022/03/03 07:57:16;;;;;;;22.20;10.85;;;;;;;1.90;59.33;96336.16;4971531;23;20045;-81
2022/03/03 07:59:47;;;;;;;18.88;11.38;;;;;;;2.10;59.64;96325.47;4910965;29;20057;-76
2022/03/03 08:02:20;;;;;;;22.30;11.63;;;;;;;2.44;58.38;96314.25;4909820;29;20533;-79
2022/03/03 08:04:49;;;;;;;22.77;11.45;;;;;;;2.77;56.76;96311.06;4911563;29;20063;-80
2022/03/03 08:07:17;;;;;;;19.50;11.25;;;;;;;2.93;55.34;96311.06;4911276;29;20060;-80
2022/03/03 08:09:47;;;;;;;20.80;10.98;;;;;;;3.18;54.37;96308.31;4911510;29;20072;-78
2022/03/03 08:12:15;;;;;;;20.80;11.50;;;;;;;3.36;54.48;96298.88;4910746;29;20055;-79
2022/03/03 08:14:42;;;;;;;20.73;11.88;;;;;;;3.42;53.57;96296.97;4910415;29;20289;-78
2022/03/03 08:17:14;;;;;;;23.90;12.45;;;;;;;3.56;53.68;96295.31;4912331;29;20578;-78
2022/03/03 08:19:43;;;;;;;21.95;11.38;;;;;;;4.15;52.08;96299.91;4913215;29;20484;-78
2022/03/03 08:22:09;;;;;;;20.58;11.07;;;;;;;4.96;52.37;96293.94;4917813;29;20428;-78
2022/03/03 08:24:36;;;;;;;20.40;11.70;;;;;;;5.80;50.71;96295.50;4912378;29;20804;-79
2022/03/03 08:27:03;;;;;;;20.65;11.38;;;;;;;6.44;48.06;96299.56;4913625;29;20059;-79
2022/03/03 08:29:30;;;;;;;18.20;10.38;;;;;;;7.05;45.67;96298.63;4918998;29;20055;-78
2022/03/03 08:31:58;;;;;;;19.45;11.52;;;;;;;7.90;45.45;96294.59;4925551;29;20047;-78
2022/03/03 08:34:34;;;;;;;21.38;11.25;;;;;;;8.61;43.00;96287.69;4932682;29;20063;-79
2022/03/03 08:37:04;;;;;;;18.17;10.77;;;;;;;9.17;40.69;96284.69;4916834;29;20048;-79
2022/03/03 08:39:31;;;;;;;16.67;10.38;;;;;;;9.49;39.35;96284.41;4915238;29;20051;-78
2022/03/03 08:42:02;;;;;;;15.93;10.27;;;;;;;9.86;39.31;96274.16;4913689;29;20055;-78
2022/03/03 08:44:33;;;;;;;16.77;10.43;;;;;;;9.96;36.57;96281.22;4914654;29;20480;-79
2022/03/03 08:47:02;;;;;;;17.05;10.02;;;;;;;10.02;37.21;96278.03;4915863;29;20056;-78
2022/03/03 08:49:36;;;;;;;16.38;10.52;;;;;;;10.07;39.03;96274.38;4915416;29;20063;-79
2022/03/03 08:52:04;;;;;;;22.80;11.18;;;;;;;10.38;37.80;96274.31;4915408;29;20084;-79
2022/03/03 08:54:31;;;;;;;16.10;10.70;;;;;;;10.64;37.22;96277.84;4915527;29;20054;-78
2022/03/03 08:56:57;;;;;;;20.48;10.68;;;;;;;10.69;35.60;96274.97;4915872;29;20052;-78
2022/03/03 08:59:24;;;;;;;17.95;10.63;;;;;;;10.34;36.93;96273.38;4912617;29;20524;-78
2022/03/03 09:01:53;;;;;;;17.20;10.30;;;;;;;10.24;39.58;96273.66;4915766;29;20063;-78
2022/03/03 09:04:20;;;;;;;17.55;10.23;;;;;;;10.19;39.13;96272.66;4914021;29;20108;-79
2022/03/03 09:06:48;;;;;;;17.58;10.80;;;;;;;10.20;38.18;96279.69;4915650;29;20044;-78
2022/03/03 09:09:15;;;;;;;18.02;10.98;;;;;;;10.14;37.76;96264.66;4913435;29;20059;-79
2022/03/03 09:11:41;;;;;;;15.70;10.20;;;;;;;9.82;37.18;96270.47;4915538;29;20075;-79
2022/03/03 09:14:08;;;;;;;19.65;10.30;;;;;;;9.37;37.51;96270.59;4913147;29;20063;-78
2022/03/03 09:16:35;;;;;;;20.77;10.98;;;;;;;9.34;37.74;96273.94;4922875;29;20100;-77
2022/03/03 09:19:02;;;;;;;19.48;11.77;;;;;;;8.85;40.04;96273.00;4912900;29;20059;-78
2022/03/03 09:21:29;;;;;;;21.20;12.52;;;;;;;8.86;42.17;96274.59;4914779;29;20044;-78
2022/03/03 09:23:57;;;;;;;22.23;11.65;;;;;;;8.74;44.33;96268.91;4906344;29;20099;-78
2022/03/03 09:26:23;;;;;;;22.02;11.68;;;;;;;8.86;42.26;96275.38;4912948;29;20055;-78
2022/03/03 09:28:50;;;;;;;18.35;11.13;;;;;;;8.95;41.16;96274.66;4899317;29;20068;-78
2022/03/03 09:31:16;;;;;;;16.67;11.48;;;;;;;8.98;43.91;96272.13;4913516;29;20067;-79
2022/03/03 09:33:43;;;;;;;17.83;11.00;;;;;;;9.43;42.57;96274.78;4915285;29;20154;-78
2022/03/03 09:36:09;;;;;;;26.65;11.40;;;;;;;9.56;41.01;96276.63;4913306;29;20059;-78
2022/03/03 09:38:36;;;;;;;18.00;11.20;;;;;;;9.64;39.75;96277.75;4913626;29;20066;-78
2022/03/03 09:41:04;;;;;;;18.92;11.32;;;;;;;9.66;40.93;96286.41;4913172;29;20055;-78
2022/03/03 09:43:30;;;;;;;18.80;11.27;;;;;;;9.59;39.70;96270.53;4914601;29;20080;-78
2022/03/03 09:45:57;;;;;;;23.27;12.75;;;;;;;9.95;40.46;96269.53;4913120;29;20052;-79
2022/03/03 09:48:23;;;;;;;21.75;12.43;;;;;;;9.99;41.10;96256.94;4913152;29;20062;-78
2022/03/03 09:50:50;;;;;;;18.25;11.18;;;;;;;10.07;39.90;96258.84;4914128;29;20052;-78
2022/03/03 09:53:18;;;;;;;21.83;11.57;;;;;;;10.02;38.91;96256.28;4912580;29;20062;-79
2022/03/03 09:55:46;;;;;;;27.48;12.30;;;;;;;10.24;38.99;96260.06;4914451;29;20107;-79
2022/03/03 09:58:16;;;;;;;21.40;12.30;;;;;;;10.71;37.96;96256.41;4913075;29;20412;-79
2022/03/03 10:00:42;;;;;;;16.48;10.50;;;;;;;10.70;35.71;96252.09;4913807;29;20048;-80
2022/03/03 10:03:12;;;;;;;25.80;11.63;;;;;;;10.96;36.06;96251.22;4914539;29;20482;-79
2022/03/03 10:05:42;;;;;;;23.65;11.35;;;;;;;11.39;37.17;96250.38;4915130;29;20075;-79
2022/03/03 10:08:11;;;;;;;22.00;10.63;;;;;;;11.59;34.54;96246.94;4915215;29;20775;-78
2022/03/03 10:10:39;;;;;;;18.95;10.63;;;;;;;11.75;34.17;96250.72;4916197;29;20048;-78
2022/03/03 10:13:06;;;;;;;20.50;10.25;;;;;;;11.95;34.80;96242.91;4922266;29;20063;-80
2022/03/03 10:15:36;;;;;;;16.23;10.55;;;;;;;12.00;32.71;96237.28;4928419;29;20044;-79
2022/03/03 10:18:09;;;;;;;18.75;11.23;;;;;;;11.63;33.04;96236.94;4918665;29;20054;-79
2022/03/03 10:20:47;;;;;;;15.32;11.15;;;;;;;11.60;34.81;96228.63;4917467;29;20040;-79
2022/03/03 10:23:14;;;;;;;16.77;11.07;;;;;;;11.69;33.30;96229.38;4915191;29;20060;-80
2022/03/03 10:25:44;;;;;;;18.77;11.02;;;;;;;11.75;36.28;96234.34;4915649;29;20522;-80
2022/03/03 10:28:14;;;;;;;13.35;9.52;;;;;;;11.90;33.34;96227.56;4904858;29;20512;-79
2022/03/03 10:30:51;;;;;;;15.48;10.10;;;;;;;11.84;32.99;96231.59;4914626;29;20052;-78
2022/03/03 10:33:19;;;;;;;17.95;9.93;;;;;;;11.77;30.87;96225.81;4913812;29;20685;-79
2022/03/03 10:36:02;;;;;;;17.20;10.10;;;;;;;11.40;31.09;96221.97;4914396;29;20059;-79
2022/03/03 10:38:29;;;;;;;27.45;10.60;;;;;;;11.00;31.78;96208.59;4913375;29;20040;-78
2022/03/03 10:40:56;;;;;;;13.05;8.52;;;;;;;10.81;30.85;96211.69;4905587;29;20243;-79
2022/03/03 10:43:22;;;;;;;13.18;8.45;;;;;;;10.59;32.33;96203.69;4912522;29;20052;-79
2022/03/03 10:45:57;;;;;;;13.43;8.30;;;;;;;10.57;30.32;96206.75;4912130;29;20155;-79
2022/03/03 10:48:25;;;;;;;14.70;8.20;;;;;;;10.39;28.06;96205.97;4912074;29;20712;-79
2022/03/03 10:50:54;;;;;;;18.23;8.05;;;;;;;10.39;27.10;96210.59;4914793;29;20149;-77
2022/03/03 10:53:22;;;;;;;11.60;8.05;;;;;;;10.40;29.54;96196.66;4911982;29;20439;-78
2022/03/03 10:56:04;;;;;;;17.40;8.95;;;;;;;10.46;29.16;96202.75;4911102;29;20060;-79
2022/03/03 10:58:53;;;;;;;17.55;8.85;;;;;;;10.14;29.68;96196.63;4910275;29;20084;-78
2022/03/03 11:01:24;;;;;;;9.85;7.15;;;;;;;10.21;29.44;96198.84;4910197;29;20051;-78
2022/03/03 11:03:51;;;;;;;16.63;8.82;;;;;;;10.22;29.15;96194.22;4920077;29;20062;-78
2022/03/03 11:06:19;;;;;;;21.38;9.27;;;;;;;10.13;28.91;96189.59;4930733;29;20118;-79
2022/03/03 11:08:48;;;;;;;16.25;8.32;;;;;;;10.09;28.31;96191.34;4925076;29;20547;-78
2022/03/03 11:11:14;;;;;;;12.32;7.85;;;;;;;9.95;28.53;96190.66;4910958;29;20052;-78
2022/03/03 11:13:41;;;;;;;13.18;7.85;;;;;;;9.85;27.94;96191.75;4910221;29;20044;-78
2022/03/03 11:16:08;;;;;;;10.93;7.60;;;;;;;9.88;29.58;96193.06;4911095;29;20051;-78
2022/03/03 11:18:36;;;;;;;12.32;7.85;;;;;;;10.05;27.36;96193.09;4910039;29;20051;-78
2022/03/03 11:21:03;;;;;;;12.73;7.25;;;;;;;9.92;27.81;96202.19;4910067;29;20055;-78
2022/03/03 11:23:41;;;;;;;14.25;7.93;;;;;;;9.98;28.47;96184.59;4907580;29;20076;-77